Time;durP1;ratioP1;P1;durP2;ratioP2;P2;SDS_P1;SDS_P2;PMS_P1;PMS_P2;Temp;Humidity;BMP_temperature;BMP_pressure;BME280_temperature;BME280_humidity;BME280_pressure;Samples;Min_cycle;Max_cycle;Signal;HPM_P1;HPM_P2
2022/04/01 00:01:57;;;;;;;11.10;5.15;;;;;;;-1.55;100.00;98887.81;5074334;28;20472;-76
2022/04/01 00:04:22;;;;;;;9.25;5.25;;;;;;;-1.59;100.00;98884.31;5072861;28;20107;-76
2022/04/01 00:06:47;;;;;;;10.00;5.32;;;;;;;-1.57;100.00;98890.41;5074233;28;20428;-75
2022/04/01 00:09:12;;;;;;;10.27;5.45;;;;;;;-1.57;100.00;98885.16;5074001;28;20025;-76
2022/04/01 00:11:38;;;;;;;10.23;5.07;;;;;;;-1.58;100.00;98887.81;5074065;28;20024;-76
2022/04/01 00:14:03;;;;;;;9.15;5.03;;;;;;;-1.58;100.00;98877.34;5073919;28;20074;-76
2022/04/01 00:16:28;;;;;;;10.20;5.53;;;;;;;-1.62;100.00;98880.81;5074252;28;20462;-76
2022/04/01 00:18:55;;;;;;;9.43;5.18;;;;;;;-1.61;100.00;98882.56;5074208;28;20052;-76
2022/04/01 00:21:21;;;;;;;9.30;4.70;;;;;;;-1.63;100.00;98876.47;5073152;28;20055;-76
2022/04/01 00:23:46;;;;;;;9.48;5.20;;;;;;;-1.59;100.00;98886.06;5073743;28;20099;-76
2022/04/01 00:26:11;;;;;;;10.80;5.70;;;;;;;-1.59;100.00;98880.81;5072510;28;20020;-76
2022/04/01 00:28:38;;;;;;;10.05;4.97;;;;;;;-1.60;100.00;98876.47;5074069;28;20024;-76
2022/04/01 00:31:03;;;;;;;9.23;5.00;;;;;;;-1.62;100.00;98879.06;5072300;28;20028;-76
2022/04/01 00:33:29;;;;;;;8.93;5.55;;;;;;;-1.68;100.00;98881.72;5073906;28;20031;-76
2022/04/01 00:35:54;;;;;;;8.13;4.32;;;;;;;-1.64;100.00;98882.56;5073537;28;20459;-76
2022/04/01 00:38:19;;;;;;;8.23;4.32;;;;;;;-1.69;100.00;98875.63;5073589;28;20111;-76
2022/04/01 00:40:45;;;;;;;8.20;4.50;;;;;;;-1.67;100.00;98877.38;5072278;28;20435;-76
2022/04/01 00:43:10;;;;;;;8.05;4.53;;;;;;;-1.67;100.00;98883.44;5071905;28;20443;-76
2022/04/01 00:45:36;;;;;;;8.88;4.53;;;;;;;-1.69;100.00;98886.09;5073005;28;20410;-75
2022/04/01 00:48:02;;;;;;;7.90;4.55;;;;;;;-1.66;100.00;98889.56;5073525;28;20493;-76
2022/04/01 00:50:32;;;;;;;11.43;4.80;;;;;;;-1.73;100.00;98889.59;5073344;28;20466;-76
2022/04/01 00:52:58;;;;;;;9.00;4.40;;;;;;;-1.76;100.00;98894.84;5073369;28;20111;-76
2022/04/01 00:55:23;;;;;;;8.57;3.83;;;;;;;-1.74;100.00;98887.84;5071882;28;20073;-76
2022/04/01 00:57:49;;;;;;;8.50;4.78;;;;;;;-1.73;100.00;98893.97;5073276;28;20107;-76
2022/04/01 01:00:14;;;;;;;10.35;4.75;;;;;;;-1.75;100.00;98899.19;5073303;28;20066;-76
2022/04/01 01:02:40;;;;;;;7.63;4.03;;;;;;;-1.75;100.00;98895.72;5071947;28;20016;-76
2022/04/01 01:05:05;;;;;;;10.55;5.03;;;;;;;-1.79;100.00;98897.44;5071912;28;20032;-76
2022/04/01 01:07:31;;;;;;;7.03;4.25;;;;;;;-1.81;100.00;98899.19;5073298;28;20385;-76
2022/04/01 01:09:57;;;;;;;7.82;4.57;;;;;;;-1.80;100.00;98903.53;5073158;28;20020;-76
2022/04/01 01:12:24;;;;;;;6.32;4.07;;;;;;;-1.81;100.00;98907.06;5073160;28;20039;-76
2022/04/01 01:14:49;;;;;;;8.02;3.78;;;;;;;-1.83;100.00;98908.81;5073214;28;20024;-76
2022/04/01 01:17:14;;;;;;;7.63;4.68;;;;;;;-1.83;100.00;98911.44;5073386;28;20059;-76
2022/04/01 01:19:42;;;;;;;7.75;4.32;;;;;;;-1.85;100.00;98911.41;5073091;28;20107;-76
2022/04/01 01:22:08;;;;;;;6.35;4.03;;;;;;;-1.87;100.00;98907.06;5071926;28;20031;-75
2022/04/01 01:24:38;;;;;;;7.40;3.80;;;;;;;-1.89;100.00;98914.03;5071682;28;20559;-75
2022/04/01 01:27:06;;;;;;;7.28;3.67;;;;;;;-1.86;100.00;98909.69;5073055;28;20028;-76
2022/04/01 01:29:32;;;;;;;8.43;4.65;;;;;;;-1.86;100.00;98908.81;5073000;28;20074;-76
2022/04/01 01:32:00;;;;;;;6.45;3.60;;;;;;;-1.83;100.00;98911.44;5072835;28;20486;-76
2022/04/01 01:34:27;;;;;;;9.25;4.28;;;;;;;-1.87;100.00;98914.91;5073122;28;20400;-76
2022/04/01 01:36:52;;;;;;;6.55;4.05;;;;;;;-1.83;100.00;98919.28;5073120;28;20024;-76
2022/04/01 01:39:19;;;;;;;8.60;4.20;;;;;;;-1.88;100.00;98911.41;5073213;28;20392;-76
2022/04/01 01:41:45;;;;;;;6.90;4.30;;;;;;;-1.90;100.00;98918.41;5073157;28;20033;-75
2022/04/01 01:44:12;;;;;;;6.32;3.92;;;;;;;-1.93;100.00;98919.28;5072977;28;20028;-76
2022/04/01 01:46:38;;;;;;;7.55;4.00;;;;;;;-1.88;100.00;98913.19;5072740;28;20506;-75
2022/04/01 01:49:04;;;;;;;7.68;3.88;;;;;;;-1.98;100.00;98915.78;5071567;28;20032;-75
2022/04/01 01:56:59;;;;;;;6.97;4.10;;;;;;;-1.97;100.00;98907.06;5076701;28;20035;-76
2022/04/01 01:59:25;;;;;;;7.40;4.43;;;;;;;-2.00;100.00;98917.53;5075357;28;20458;-75
2022/04/01 02:01:50;;;;;;;7.90;4.25;;;;;;;-1.99;100.00;98921.91;5076514;28;20521;-75
2022/04/01 02:04:15;;;;;;;6.93;4.18;;;;;;;-2.00;100.00;98917.53;5077016;28;20024;-75
2022/04/01 02:06:41;;;;;;;7.47;3.70;;;;;;;-2.01;100.00;98915.81;5076403;28;20393;-75
2022/04/01 02:09:06;;;;;;;7.47;4.18;;;;;;;-2.05;100.00;98914.94;5075151;28;20027;-76
2022/04/01 02:11:31;;;;;;;8.40;3.90;;;;;;;-2.02;100.00;98914.06;5075012;28;20021;-75
2022/04/01 02:13:57;;;;;;;9.70;4.50;;;;;;;-2.03;100.00;98923.66;5076490;28;20064;-75
2022/04/01 02:16:22;;;;;;;7.50;4.18;;;;;;;-2.08;100.00;98925.38;5076226;28;20032;-75
2022/04/01 02:18:49;;;;;;;9.20;3.50;;;;;;;-2.05;100.00;98917.53;5076223;28;20366;-75
2022/04/01 02:21:15;;;;;;;5.95;3.38;;;;;;;-2.04;100.00;98932.38;5076293;28;20013;-75
2022/04/01 02:23:43;;;;;;;7.55;3.75;;;;;;;-2.02;100.00;98930.63;5076076;28;20024;-75
2022/04/01 02:26:08;;;;;;;6.20;3.75;;;;;;;-2.05;100.00;98935.84;5076385;28;20024;-75
2022/04/01 02:28:35;;;;;;;6.97;3.97;;;;;;;-2.06;100.00;98939.34;5076057;28;20031;-75
2022/04/01 02:31:00;;;;;;;8.82;4.18;;;;;;;-2.09;100.00;98938.47;5076124;28;20032;-76
2022/04/01 02:33:27;;;;;;;8.20;4.15;;;;;;;-2.06;100.00;98938.50;5075983;28;20028;-75
2022/04/01 02:35:54;;;;;;;9.60;4.40;;;;;;;-2.11;100.00;98935.00;5074549;28;20153;-75
2022/04/01 02:38:19;;;;;;;8.70;4.78;;;;;;;-2.10;100.00;98936.72;5074690;28;20082;-75
2022/04/01 02:40:44;;;;;;;8.50;4.43;;;;;;;-2.09;100.00;98936.75;5074600;28;20436;-75
2022/04/01 02:43:10;;;;;;;8.23;4.55;;;;;;;-2.11;100.00;98938.47;5075771;28;20107;-75
2022/04/01 02:45:35;;;;;;;8.52;4.55;;;;;;;-2.11;100.00;98940.22;5075693;28;20443;-76
2022/04/01 02:48:00;;;;;;;7.32;4.53;;;;;;;-2.15;100.00;98945.44;5074483;28;20432;-75
2022/04/01 02:50:26;;;;;;;7.07;4.18;;;;;;;-2.15;100.00;98940.22;5075815;28;20027;-75
2022/04/01 02:52:51;;;;;;;9.38;4.00;;;;;;;-2.13;100.00;98941.09;5074306;28;20478;-75
2022/04/01 02:55:17;;;;;;;9.50;4.72;;;;;;;-2.15;100.00;98944.56;5125169;22;20045;-84
2022/04/01 02:57:42;;;;;;;7.50;4.38;;;;;;;-2.17;100.00;98951.56;5085484;28;20128;-83
2022/04/01 03:00:09;;;;;;;7.43;4.65;;;;;;;-2.20;100.00;98947.19;5080863;28;20037;-84
2022/04/01 03:02:40;;;;;;;7.55;4.10;;;;;;;-2.19;100.00;98943.69;5080237;28;20017;-85
2022/04/01 03:05:06;;;;;;;6.30;3.88;;;;;;;-2.18;100.00;98950.69;5074735;28;20115;-84
2022/04/01 03:07:32;;;;;;;7.13;4.00;;;;;;;-2.20;100.00;98955.03;5073930;28;20055;-83
2022/04/01 03:09:58;;;;;;;7.03;4.50;;;;;;;-2.20;100.00;98962.88;5075134;28;20462;-83
2022/04/01 03:12:23;;;;;;;7.80;3.70;;;;;;;-2.26;100.00;98957.63;5081094;28;20063;-84
2022/04/01 03:14:50;;;;;;;9.93;4.68;;;;;;;-2.23;100.00;98952.41;5081874;28;20385;-84
2022/04/01 03:17:15;;;;;;;7.53;4.03;;;;;;;-2.19;100.00;98956.75;5081295;28;20397;-84
2022/04/01 03:19:40;;;;;;;10.00;4.25;;;;;;;-2.21;100.00;98962.88;5080732;28;20020;-83
2022/04/01 03:22:06;;;;;;;7.78;4.72;;;;;;;-2.21;100.00;98955.91;5080170;28;20021;-84
2022/04/01 03:24:32;;;;;;;9.25;4.28;;;;;;;-2.20;100.00;98960.28;5081449;28;20020;-82
2022/04/01 03:26:57;;;;;;;7.32;4.28;;;;;;;-2.24;100.00;98966.34;5080153;28;20027;-83
2022/04/01 03:29:23;;;;;;;7.78;4.10;;;;;;;-2.25;100.00;98972.47;5079061;28;20024;-84
2022/04/01 03:31:51;;;;;;;8.55;4.25;;;;;;;-2.22;100.00;98975.09;5080306;28;20021;-83
2022/04/01 03:34:17;;;;;;;10.00;4.00;;;;;;;-2.29;100.00;98968.97;5077543;28;20023;-83
2022/04/01 03:36:51;;;;;;;9.43;3.75;;;;;;;-2.30;100.00;98974.22;5079780;28;20025;-84
2022/04/01 03:39:17;;;;;;;8.02;3.85;;;;;;;-2.29;100.00;98979.44;5077198;28;20024;-81
2022/04/01 03:41:43;;;;;;;7.90;3.90;;;;;;;-2.33;100.00;98982.91;5075422;28;20469;-81
2022/04/01 03:44:10;;;;;;;5.50;3.33;;;;;;;-2.37;100.00;98976.81;5078732;28;20020;-82
2022/04/01 03:46:50;;;;;;;6.93;3.38;;;;;;;-2.39;100.00;98989.00;5078748;28;20028;-83
2022/04/01 03:49:23;;;;;;;5.15;3.25;;;;;;;-2.39;100.00;98978.53;5078455;28;20060;-82
2022/04/01 03:51:50;;;;;;;7.10;3.20;;;;;;;-2.37;100.00;98975.94;5079374;28;20028;-82
2022/04/01 03:54:17;;;;;;;5.63;3.17;;;;;;;-2.33;100.00;98982.03;5076813;28;20428;-82
2022/04/01 03:56:48;;;;;;;6.95;3.95;;;;;;;-2.32;100.00;98986.41;5078258;28;20474;-83
2022/04/01 03:59:17;;;;;;;5.88;3.25;;;;;;;-2.37;100.00;98987.25;5079722;28;20020;-83
2022/04/01 04:01:42;;;;;;;6.18;3.33;;;;;;;-2.32;100.00;98995.09;5077905;28;20017;-84
2022/04/01 04:04:09;;;;;;;5.70;3.28;;;;;;;-2.34;100.00;98980.31;5078938;28;20028;-84
2022/04/01 04:06:36;;;;;;;7.43;3.88;;;;;;;-2.34;100.00;98990.78;5079331;28;20381;-84
2022/04/01 04:09:03;;;;;;;8.98;3.63;;;;;;;-2.38;100.00;98979.44;5076938;28;20027;-84
2022/04/01 04:11:32;;;;;;;7.80;3.60;;;;;;;-2.37;100.00;98992.47;5078284;28;20381;-84
2022/04/01 04:14:00;;;;;;;5.60;3.17;;;;;;;-2.38;100.00;98987.28;5075707;28;20017;-83
2022/04/01 04:16:34;;;;;;;8.70;3.92;;;;;;;-2.41;100.00;98995.09;5074730;28;20101;-82
2022/04/01 04:19:03;;;;;;;7.78;3.70;;;;;;;-2.42;100.00;98989.00;5075268;28;20020;-83
2022/04/01 04:21:36;;;;;;;6.95;3.67;;;;;;;-2.43;100.00;98992.50;5075179;28;20020;-83
2022/04/01 04:24:02;;;;;;;7.30;3.58;;;;;;;-2.43;100.00;98997.72;5076314;28;20024;-83
2022/04/01 04:26:37;;;;;;;7.38;3.90;;;;;;;-2.44;100.00;98992.47;5077454;28;20107;-82
2022/04/01 04:29:11;;;;;;;8.60;4.20;;;;;;;-2.42;100.00;98999.44;5076312;28;20078;-81
2022/04/01 04:31:37;;;;;;;;;;;;;;;-2.42;100.00;98999.44;5076541;28;20031;-82
2022/04/01 04:34:04;;;;;;;7.38;3.50;;;;;;;-2.43;100.00;99002.94;5075832;28;19912;-84
2022/04/01 04:36:46;;;;;;;7.38;3.80;;;;;;;-2.44;100.00;99001.19;5076617;28;20025;-84
2022/04/01 04:39:34;;;;;;;7.63;4.03;;;;;;;-2.42;100.00;99009.91;5074782;28;20039;-85
2022/04/01 04:42:04;;;;;;;7.38;4.15;;;;;;;-2.42;100.00;99012.53;5076913;28;20025;-84
2022/04/01 04:44:30;;;;;;;8.48;4.47;;;;;;;-2.43;100.00;99012.53;5075529;28;20029;-84
2022/04/01 04:47:00;;;;;;;8.20;4.35;;;;;;;-2.44;100.00;99019.50;5074894;28;20028;-85
2022/04/01 04:49:32;;;;;;;7.50;4.47;;;;;;;-2.45;100.00;99032.56;5075497;28;20025;-86
2022/04/01 04:52:01;;;;;;;7.50;4.38;;;;;;;-2.41;100.00;99016.00;5074489;28;20378;-84
2022/04/01 04:54:26;;;;;;;13.88;5.05;;;;;;;-2.44;100.00;99022.09;5078341;28;20024;-85
2022/04/01 04:56:55;;;;;;;8.93;3.92;;;;;;;-2.46;100.00;99039.53;5081458;28;20028;-85
2022/04/01 04:59:22;;;;;;;6.68;3.85;;;;;;;-2.42;100.00;99030.81;5080774;28;20029;-85
2022/04/01 05:02:05;;;;;;;10.35;4.32;;;;;;;-2.45;100.00;99036.06;5078036;28;20405;-88
2022/04/01 05:04:55;;;;;;;9.55;4.43;;;;;;;-2.45;100.00;99045.66;5076057;28;20044;-85
2022/04/01 05:07:34;;;;;;;7.88;4.45;;;;;;;-2.44;100.00;99045.63;5075123;28;20362;-85
2022/04/01 05:10:23;;;;;;;8.32;3.80;;;;;;;-2.46;100.00;99036.91;5074205;28;20111;-87
2022/04/01 05:13:28;;;;;;;5.85;3.90;;;;;;;-2.43;100.00;99065.69;5074122;28;20021;-85
2022/04/01 05:16:01;;;;;;;;;;;;;;;-2.42;100.00;99056.13;5065623;28;20028;-85
2022/04/01 05:18:44;;;;;;;7.78;4.32;;;;;;;-2.34;100.00;99053.53;5076430;28;19967;-85
2022/04/01 05:21:18;;;;;;;8.27;4.00;;;;;;;-2.36;100.00;99056.13;5073941;28;20021;-84
2022/04/01 05:23:50;;;;;;;9.25;4.05;;;;;;;-2.41;100.00;99060.47;5073348;28;20071;-85
2022/04/01 05:26:26;;;;;;;6.82;3.67;;;;;;;-2.38;100.00;99058.75;5073943;28;20064;-86
2022/04/01 05:29:07;;;;;;;10.23;3.90;;;;;;;-2.37;100.00;99065.69;5072786;28;20028;-86
2022/04/01 05:31:35;;;;;;;8.60;3.63;;;;;;;-2.29;100.00;99072.69;5075528;28;20028;-86
2022/04/01 05:34:09;;;;;;;10.15;4.78;;;;;;;-2.37;100.00;99078.78;5076793;28;20065;-86
2022/04/01 05:36:36;;;;;;;10.02;4.88;;;;;;;-2.34;100.00;99082.28;5077147;28;20024;-85
2022/04/01 05:39:03;;;;;;;10.20;4.07;;;;;;;-2.33;100.00;99081.41;5076818;28;20025;-85
2022/04/01 05:41:28;;;;;;;9.10;4.10;;;;;;;-2.34;100.00;99085.75;5077987;28;20027;-85
2022/04/01 05:43:57;;;;;;;7.85;3.90;;;;;;;-2.30;100.00;99091.88;5076268;28;20020;-85
2022/04/01 05:46:24;;;;;;;9.43;4.93;;;;;;;-2.29;100.00;99096.22;5076886;28;20035;-86
2022/04/01 05:48:51;;;;;;;8.82;4.70;;;;;;;-2.32;100.00;99093.63;5076227;28;20032;-84
2022/04/01 05:51:24;;;;;;;11.18;5.05;;;;;;;-2.32;100.00;99093.63;5076922;28;20119;-86
2022/04/01 05:53:51;;;;;;;;;;;;;;;-2.31;100.00;99100.59;5077150;28;20150;-85
2022/04/01 05:56:32;;;;;;;7.82;4.35;;;;;;;-2.34;100.00;99097.97;5076046;28;20366;-84
2022/04/01 05:59:03;;;;;;;9.30;4.80;;;;;;;-2.33;100.00;99107.56;5076521;28;20032;-85
2022/04/01 06:01:48;;;;;;;8.70;4.80;;;;;;;-2.37;100.00;99107.53;5077542;28;20022;-85
2022/04/01 06:04:50;;;;;;;9.65;4.45;;;;;;;-2.26;100.00;99104.97;5076369;28;20031;-84
2022/04/01 06:07:48;;;;;;;9.23;5.15;;;;;;;-2.32;100.00;99104.94;5078812;28;20028;-85
2022/04/01 06:10:25;;;;;;;9.73;4.45;;;;;;;-2.28;100.00;99111.06;5071925;28;20032;-85
2022/04/01 06:13:32;;;;;;;10.23;4.90;;;;;;;-2.26;100.00;99119.78;5076230;28;20098;-85
2022/04/01 06:16:25;;;;;;;9.32;4.80;;;;;;;-2.32;100.00;99119.78;5076305;28;20017;-86
2022/04/01 06:19:02;;;;;;;9.20;4.25;;;;;;;-2.30;100.00;99118.91;5077057;28;20440;-85
2022/04/01 06:21:41;;;;;;;8.05;4.47;;;;;;;-2.33;100.00;99118.91;5075577;28;20111;-86
2022/04/01 06:24:40;;;;;;;6.55;3.88;;;;;;;-2.32;100.00;99128.47;5076348;28;20111;-86
2022/04/01 06:27:11;;;;;;;7.75;4.75;;;;;;;-2.32;100.00;99130.25;5067327;28;20039;-86
2022/04/01 06:30:05;;;;;;;9.93;4.72;;;;;;;-2.33;100.00;99125.88;5073306;28;20139;-86
2022/04/01 06:33:08;;;;;;;10.88;4.95;;;;;;;-2.29;100.00;99135.44;5071958;28;20080;-86
2022/04/01 06:35:54;;;;;;;10.15;5.65;;;;;;;-2.28;100.00;99135.47;5077560;28;20112;-87
2022/04/01 06:38:41;;;;;;;10.35;5.25;;;;;;;-2.28;100.00;99132.88;5075123;28;20017;-86
2022/04/01 06:41:19;;;;;;;8.60;5.30;;;;;;;-2.23;100.00;99145.94;5076013;28;20040;-86
2022/04/01 06:44:06;;;;;;;9.10;5.35;;;;;;;-2.14;100.00;99134.66;5075935;28;20025;-84
2022/04/01 06:46:31;;;;;;;10.18;5.10;;;;;;;-2.19;100.00;99147.69;5076631;28;20465;-86
2022/04/01 06:49:12;;;;;;;10.30;5.22;;;;;;;-2.18;100.00;99154.69;5076571;28;20025;-86
2022/04/01 06:51:48;;;;;;;9.07;4.40;;;;;;;-2.15;100.00;99153.84;5076396;28;20025;-86
2022/04/01 06:54:21;;;;;;;9.18;4.78;;;;;;;-2.18;100.00;99152.06;5075171;28;20039;-87
2022/04/01 06:56:50;;;;;;;8.43;3.97;;;;;;;-2.16;100.00;99158.19;5076484;28;20044;-85
2022/04/01 06:59:22;;;;;;;8.55;4.30;;;;;;;-2.15;100.00;99157.31;5075659;28;20417;-85
2022/04/01 07:01:50;;;;;;;7.95;4.47;;;;;;;-2.12;100.00;99159.09;5075430;28;20128;-85
2022/04/01 07:04:16;;;;;;;9.13;3.78;;;;;;;-2.18;100.00;99159.03;5075312;28;20488;-87
2022/04/01 07:06:47;;;;;;;7.93;3.80;;;;;;;-2.17;100.00;99166.03;5074448;28;20028;-86
2022/04/01 07:09:34;;;;;;;;;;;;;;;;;;;;;
2022/04/01 07:12:06;;;;;;;8.85;4.57;;;;;;;-2.16;100.00;99171.25;5076214;28;20401;-87
2022/04/01 07:14:50;;;;;;;;;;;;;;;;;;;;;
2022/04/01 07:17:16;;;;;;;8.38;4.82;;;;;;;-2.20;100.00;99173.88;5078586;28;20651;-86
2022/04/01 07:19:47;;;;;;;8.98;4.55;;;;;;;-2.13;100.00;99178.25;5074741;28;20033;-87
2022/04/01 07:22:17;;;;;;;8.35;4.68;;;;;;;-2.17;100.00;99177.38;5075859;28;20473;-86
2022/04/01 07:24:46;;;;;;;8.60;4.95;;;;;;;-2.10;100.00;99187.84;5074986;28;20037;-87
2022/04/01 07:27:23;;;;;;;7.72;5.18;;;;;;;-2.21;100.00;99183.44;5074372;28;20036;-86
2022/04/01 07:29:51;;;;;;;8.00;3.95;;;;;;;-2.13;100.00;99173.91;5074492;28;20024;-85
2022/04/01 07:32:34;;;;;;;8.27;4.43;;;;;;;-2.09;100.00;99187.88;5074655;28;20033;-86
2022/04/01 07:35:14;;;;;;;7.90;4.45;;;;;;;-2.04;100.00;99186.16;5074962;28;20078;-86
2022/04/01 07:37:50;;;;;;;9.50;5.18;;;;;;;-2.02;100.00;99181.78;5075385;28;20067;-85
2022/04/01 07:40:24;;;;;;;11.40;5.45;;;;;;;-2.08;100.00;99188.72;5075329;28;20032;-86
2022/04/01 07:42:50;;;;;;;8.10;4.15;;;;;;;-2.06;100.00;99181.78;5074116;28;20458;-86
2022/04/01 07:45:21;;;;;;;8.30;4.28;;;;;;;-2.07;100.00;99182.63;5075774;28;20029;-86
2022/04/01 07:47:55;;;;;;;9.55;4.47;;;;;;;-2.11;100.00;99196.59;5075272;28;20474;-85
2022/04/01 07:50:22;;;;;;;9.18;4.20;;;;;;;-2.05;100.00;99181.78;5095250;28;20024;-86
2022/04/01 07:52:59;;;;;;;7.93;4.28;;;;;;;-1.97;100.00;99184.41;5094141;28;20033;-86
2022/04/01 07:55:29;;;;;;;7.90;3.95;;;;;;;-1.96;100.00;99188.75;5074998;28;20086;-85
2022/04/01 07:57:56;;;;;;;10.93;4.70;;;;;;;-1.97;100.00;99184.41;5076785;28;20116;-86
2022/04/01 08:00:22;;;;;;;9.75;3.45;;;;;;;-1.86;100.00;99183.59;5075672;28;20021;-87
2022/04/01 08:02:50;;;;;;;7.35;4.10;;;;;;;-1.87;100.00;99190.56;5074301;28;20031;-85
2022/04/01 08:05:45;;;;;;;8.43;3.72;;;;;;;-1.88;100.00;99193.19;5074114;28;20025;-86
2022/04/01 08:08:10;;;;;;;10.32;4.50;;;;;;;-1.77;100.00;99201.03;5074424;28;20024;-85
2022/04/01 08:10:39;;;;;;;8.70;3.90;;;;;;;-1.84;100.00;99194.94;5074194;28;20032;-86
2022/04/01 08:13:09;;;;;;;8.73;3.17;;;;;;;-1.80;100.00;99194.06;5073985;28;20040;-85
2022/04/01 08:15:38;;;;;;;6.43;3.20;;;;;;;-1.75;100.00;99205.41;5075126;28;20021;-86
2022/04/01 08:18:06;;;;;;;9.93;3.75;;;;;;;-1.75;100.00;99205.41;5075558;28;20032;-85
2022/04/01 08:20:34;;;;;;;7.70;3.35;;;;;;;-1.78;100.00;99215.91;5074126;28;20070;-86
2022/04/01 08:23:00;;;;;;;7.78;3.85;;;;;;;-1.65;100.00;99222.00;5074033;28;20032;-85
2022/04/01 08:25:25;;;;;;;7.93;3.53;;;;;;;-1.72;100.00;99225.50;5074267;28;20021;-85
2022/04/01 08:27:54;;;;;;;6.82;3.42;;;;;;;-1.72;100.00;99225.50;5077250;28;20024;-84
2022/04/01 08:30:21;;;;;;;6.68;3.55;;;;;;;-1.56;100.00;99234.28;5078249;28;20020;-86
2022/04/01 08:32:47;;;;;;;7.03;3.92;;;;;;;-1.57;100.00;99235.13;5074647;28;20016;-83
2022/04/01 08:35:13;;;;;;;9.95;3.80;;;;;;;-1.59;100.00;99232.50;5074778;28;20362;-84
2022/04/01 08:37:39;;;;;;;5.88;3.20;;;;;;;-1.54;100.00;99235.13;5076692;28;20035;-84
2022/04/01 08:40:08;;;;;;;6.05;2.97;;;;;;;-1.43;100.00;99244.75;5073824;28;20032;-85
2022/04/01 08:42:36;;;;;;;8.52;3.45;;;;;;;-1.48;100.00;99239.53;5075209;28;20062;-86
2022/04/01 08:45:06;;;;;;;8.13;3.63;;;;;;;-1.37;100.00;99243.06;5074144;28;20063;-83
2022/04/01 08:47:38;;;;;;;5.22;3.30;;;;;;;-1.33;100.00;99251.78;5072141;28;20060;-84
2022/04/01 08:50:10;;;;;;;10.30;3.38;;;;;;;-1.25;100.00;99257.03;5076107;28;20028;-85
2022/04/01 08:52:35;;;;;;;7.03;3.70;;;;;;;-1.30;100.00;99259.66;5073668;28;20021;-85
2022/04/01 08:55:06;;;;;;;8.23;4.15;;;;;;;-1.25;100.00;99257.91;5117240;22;20094;-76
2022/04/01 08:57:36;;;;;;;5.43;2.60;;;;;;;-1.18;100.00;99266.63;5073324;28;20031;-76
2022/04/01 09:00:23;;;;;;;6.00;2.92;;;;;;;-1.31;100.00;99273.59;5073306;28;20021;-76
2022/04/01 09:03:00;;;;;;;6.10;3.15;;;;;;;-1.24;100.00;99267.50;5065693;28;20371;-75
2022/04/01 09:05:26;;;;;;;7.00;3.60;;;;;;;-1.25;100.00;99272.75;5072278;28;20028;-76
2022/04/01 09:08:06;;;;;;;6.38;3.10;;;;;;;-1.27;100.00;99280.63;5072067;28;20024;-76
2022/04/01 09:10:49;;;;;;;6.93;3.13;;;;;;;-1.24;100.00;99277.97;5073182;28;20481;-76
2022/04/01 09:13:15;;;;;;;8.93;3.53;;;;;;;-1.24;100.00;99292.84;5073261;28;20063;-76
2022/04/01 09:15:42;;;;;;;8.20;3.35;;;;;;;-1.34;100.00;99284.09;5073354;28;20469;-76
2022/04/01 09:18:08;;;;;;;8.27;3.30;;;;;;;-1.33;100.00;99293.69;5071932;28;20025;-75
2022/04/01 09:20:50;;;;;;;9.20;3.50;;;;;;;-1.28;100.00;99299.81;5072023;28;20431;-76
2022/04/01 09:23:23;;;;;;;8.25;3.50;;;;;;;-1.27;100.00;99301.56;5071868;28;20111;-76
2022/04/01 09:25:51;;;;;;;8.45;3.97;;;;;;;-1.30;100.00;99304.19;5073243;28;20028;-76
2022/04/01 09:28:27;;;;;;;7.80;3.97;;;;;;;-1.25;100.00;99307.69;5072963;28;20029;-76
2022/04/01 09:31:07;;;;;;;9.43;4.38;;;;;;;-1.24;100.00;99316.41;5072986;28;20027;-76
2022/04/01 09:33:45;;;;;;;11.18;4.30;;;;;;;-1.18;100.00;99312.91;5073360;28;20038;-76
2022/04/01 09:36:18;;;;;;;10.07;3.92;;;;;;;-1.15;100.00;99315.56;5073272;28;20020;-76
2022/04/01 09:38:53;;;;;;;6.60;3.67;;;;;;;-1.06;100.00;99319.97;5071714;28;20070;-76
2022/04/01 09:41:19;;;;;;;8.77;3.40;;;;;;;-1.00;100.00;99324.34;5071636;28;20028;-76
2022/04/01 09:43:44;;;;;;;9.80;3.65;;;;;;;-1.09;100.00;99326.06;5072796;28;20043;-76
2022/04/01 09:46:26;;;;;;;12.05;3.92;;;;;;;-1.10;100.00;99320.81;5072824;28;20473;-76
2022/04/01 09:48:56;;;;;;;7.85;3.67;;;;;;;-1.03;100.00;99331.31;5072832;28;20048;-76
2022/04/01 09:51:21;;;;;;;7.05;3.67;;;;;;;-1.05;100.00;99333.06;5073104;28;20070;-76
2022/04/01 09:53:52;;;;;;;6.30;3.53;;;;;;;-1.05;100.00;99333.06;5071516;28;20390;-76
2022/04/01 09:56:18;;;;;;;10.73;4.50;;;;;;;-1.04;100.00;99331.31;5072926;28;20040;-76
2022/04/01 09:58:43;;;;;;;6.13;3.42;;;;;;;-1.03;100.00;99326.06;5073030;28;20032;-76
2022/04/01 10:01:09;;;;;;;9.07;3.55;;;;;;;-0.96;100.00;99336.56;5072708;28;20036;-76
2022/04/01 10:03:34;;;;;;;7.22;3.97;;;;;;;-0.94;100.00;99343.56;5072914;28;20107;-76
2022/04/01 10:06:00;;;;;;;7.88;4.00;;;;;;;-0.96;100.00;99337.44;5073142;28;20024;-76
2022/04/01 10:08:27;;;;;;;7.15;3.45;;;;;;;-0.90;100.00;99339.19;5072985;28;20020;-76
2022/04/01 10:10:52;;;;;;;7.65;3.78;;;;;;;-0.83;100.00;99342.72;5072558;28;20041;-76
2022/04/01 10:13:24;;;;;;;6.63;3.40;;;;;;;-0.70;100.00;99348.84;5071423;28;20028;-76
2022/04/01 10:15:50;;;;;;;7.65;3.38;;;;;;;-0.67;100.00;99346.22;5071396;28;20016;-77
2022/04/01 10:18:18;;;;;;;9.57;3.42;;;;;;;-0.64;100.00;99338.34;5076258;28;20027;-76
2022/04/01 10:20:43;;;;;;;6.28;3.33;;;;;;;-0.60;100.00;99332.25;5075132;28;20024;-76
2022/04/01 10:23:11;;;;;;;7.57;2.95;;;;;;;-0.60;100.00;99344.47;5076154;28;20025;-76
2022/04/01 10:25:59;;;;;;;6.80;3.28;;;;;;;-0.49;100.00;99341.88;5076370;28;20028;-76
2022/04/01 10:28:26;;;;;;;6.32;3.25;;;;;;;-0.54;100.00;99359.34;5075346;28;20032;-76
2022/04/01 10:31:02;;;;;;;7.38;3.22;;;;;;;-0.39;100.00;99348.88;5076000;28;20058;-76
2022/04/01 10:33:38;;;;;;;6.68;3.25;;;;;;;-0.38;100.00;99350.59;5076409;28;20050;-76
2022/04/01 10:36:22;;;;;;;6.05;3.40;;;;;;;-0.46;100.00;99347.09;5074685;28;20393;-76
2022/04/01 10:38:48;;;;;;;7.82;3.35;;;;;;;-0.45;100.00;99348.84;5075958;28;20485;-76
2022/04/01 10:41:15;;;;;;;5.32;2.90;;;;;;;-0.41;100.00;99345.34;5074520;28;20404;-77
2022/04/01 10:43:47;;;;;;;4.70;2.55;;;;;;;-0.46;100.00;99339.22;5075684;28;20126;-76
2022/04/01 10:46:17;;;;;;;6.43;3.00;;;;;;;-0.42;100.00;99343.59;5076089;28;20074;-76
2022/04/01 10:52:13;;;;;;;5.13;2.78;;;;;;;-0.21;100.00;99344.47;5075623;28;20023;-77
2022/04/01 10:54:43;;;;;;;5.20;2.65;;;;;;;-0.23;100.00;99338.31;5075589;28;20032;-77
2022/04/01 10:57:12;;;;;;;5.60;2.78;;;;;;;-0.12;98.25;99339.19;5074446;28;20025;-76
2022/04/01 10:59:40;;;;;;;4.80;2.25;;;;;;;-0.01;100.00;99339.19;5075544;28;20028;-77
2022/04/01 11:02:07;;;;;;;10.05;2.83;;;;;;;0.05;98.29;99354.03;5075808;28;20043;-77
2022/04/01 11:04:39;;;;;;;7.22;2.42;;;;;;;0.17;94.25;99342.66;5075421;28;20469;-76
2022/04/01 11:07:06;;;;;;;5.05;2.35;;;;;;;0.27;90.27;99338.25;5074144;28;20484;-77
2022/04/01 11:09:41;;;;;;;6.03;2.20;;;;;;;0.31;93.90;99326.84;5075418;28;20067;-77
2022/04/01 11:12:25;;;;;;;4.20;2.20;;;;;;;0.38;91.79;99335.59;5075790;28;20150;-76
2022/04/01 11:14:53;;;;;;;4.75;2.30;;;;;;;0.47;94.82;99336.41;5075466;28;20020;-77
2022/04/01 11:17:19;;;;;;;7.05;2.42;;;;;;;0.53;97.78;99325.91;5075190;28;20077;-77
2022/04/01 11:20:06;;;;;;;6.55;2.80;;;;;;;0.47;97.25;99334.66;5075130;28;20024;-77
2022/04/01 11:22:43;;;;;;;5.90;2.50;;;;;;;0.52;96.33;99332.00;5075126;28;20028;-76
2022/04/01 11:25:14;;;;;;;4.72;2.35;;;;;;;0.52;93.36;99338.16;5074989;28;20031;-77
2022/04/01 11:27:47;;;;;;;5.15;2.30;;;;;;;0.52;94.63;99343.41;5072927;28;20370;-77
2022/04/01 11:30:14;;;;;;;;;;;;;;;0.60;96.31;99348.63;5075694;28;20035;-77
2022/04/01 11:32:44;;;;;;;5.15;2.17;;;;;;;0.71;97.64;99348.59;5075171;28;19915;-76
2022/04/01 11:35:15;;;;;;;5.75;2.58;;;;;;;0.78;96.19;99341.53;5074821;28;20028;-76
2022/04/01 11:37:43;;;;;;;3.67;2.28;;;;;;;0.74;91.88;99348.56;5075100;28;20157;-77
2022/04/01 11:40:14;;;;;;;7.75;2.20;;;;;;;0.75;94.78;99355.56;5074756;28;20028;-77
2022/04/01 11:42:56;;;;;;;4.78;2.10;;;;;;;0.80;93.96;99357.31;5073497;28;20114;-77
2022/04/01 11:45:22;;;;;;;5.00;2.45;;;;;;;0.92;94.20;99362.50;5074577;28;20021;-77
2022/04/01 11:47:48;;;;;;;5.10;2.28;;;;;;;0.95;96.71;99373.00;5074813;28;20033;-77
2022/04/01 11:50:16;;;;;;;6.68;2.33;;;;;;;0.98;98.75;99357.19;5074853;28;20482;-77
2022/04/01 11:52:49;;;;;;;7.45;2.53;;;;;;;0.85;98.05;99363.41;5074399;28;20201;-77
2022/04/01 11:55:20;;;;;;;6.90;2.10;;;;;;;0.80;95.01;99367.84;5074416;28;20036;-77